Terminal Aerodrome Forecast
Issued by NWS

Home | Current Version | Previous Version | Text Only | Print | Product List | Glossary On
Versions: 1 2 3 4 5 6 7 8 9 10 11 12 13 14 15 16 17
000
FTUS44 KLIX 021700
TAFMCB
TAF
KMCB 021738Z 0218/0318 00000KT 4SM BR VCSH OVC002
      TEMPO 0218/0222 2SM BR OVC002
     FM030300 VRB03KT 2SM BR OVC004
     FM031600 17005KT P6SM OVC008=

USA.gov is the U.S. government's official web portal to all federal, state and local government web resources and services.